Flight Track Log - Related Links

Times and Time Zones

All times are in EDT time to prevent confusion due to time zone crossing. See the SWA1996 flight status page for this flight to view local times or setup timezone preferences in your user account.

Time Position Orientation Groundspeed Altitude Reporting Facility
EDT Latitude Longitude Course Direction KTS MPH feet Rate Location/Type
Thu 10:24:02 PM 38.7167 -90.3000 235° Southwest 183 211 2,500  Level Gateway (St. Louis) TRACON
Thu 10:24:48 PM 38.6786 -90.2772 155° Southeast 222 255 4,100 2,299 Climbing Kansas City Center
Thu 10:25:49 PM 38.6183 -90.3139 205° Southwest 240 276 6,600 3,273 Climbing Kansas City Center
Thu 10:26:49 PM 38.5622 -90.3917 227° Southwest 277 319 10,700 3,273 Climbing Kansas City Center
Thu 10:27:50 PM 38.4986 -90.4753 226° Southwest 316 364 13,200 2,529 Climbing Kansas City Center
Thu 10:28:50 PM 38.4319 -90.5600 225° Southwest 345 397 15,800 2,777 Climbing Kansas City Center
Thu 10:29:00 PM 38.3782 -90.7893 235° Southwest  Level FlightAware Approximate
Thu 10:29:51 PM 38.3542 -90.6592 225° Southwest 369 425 18,800  Level Kansas City Center
Thu 10:30:51 PM 38.2786 -90.7561 225° Southwest 382 440 21,700 2,550 Climbing Kansas City Center
Thu 10:31:51 PM 38.2019 -90.8550 225° Southwest 389 448 23,900 2,231 Climbing Kansas City Center
Thu 10:32:52 PM 38.1236 -90.9547 225° Southwest 397 457 26,200 2,033 Climbing Kansas City Center
Thu 10:33:52 PM 38.0444 -91.0553 225° Southwest 401 461 28,000 1,934 Climbing Kansas City Center
Thu 10:34:53 PM 37.9642 -91.1564 225° Southwest 410 472 30,100 2,083 Climbing Kansas City Center
Thu 10:35:53 PM 37.8858 -91.2564 225° Southwest 402 463 32,200 1,950 Climbing Kansas City Center
Thu 10:36:53 PM 37.8097 -91.3539 225° Southwest 394 453 34,000 1,686 Climbing Kansas City Center
Thu 10:37:54 PM 37.7347 -91.4503 225° Southwest 389 448 35,600 992 Climbing Kansas City Center
Thu 10:38:54 PM 37.6578 -91.5458 225° Southwest 386 444 36,000 200 Climbing Kansas City Center
Thu 10:39:54 PM 37.5783 -91.6453 225° Southwest 390 449 36,000  Level Kansas City Center
Thu 10:40:55 PM 37.4997 -91.7439 225° Southwest 394 453 36,000  Level Kansas City Center
Thu 10:41:55 PM 37.4208 -91.8433 225° Southwest 397 457 36,000  Level Kansas City Center
Thu 10:42:56 PM 37.3425 -91.9411 225° Southwest 395 455 36,000  Level Kansas City Center
Thu 10:43:56 PM 37.2636 -92.0397 225° Southwest 397 457 36,000  Level Kansas City Center
Thu 10:44:56 PM 37.1847 -92.1367 224° Southwest 396 456 36,000  Level Kansas City Center
Thu 10:45:57 PM 37.1058 -92.2336 224° Southwest 395 455 36,000  Level Kansas City Center
Thu 10:46:57 PM 37.0261 -92.3306 224° Southwest 396 456 36,000  Level Kansas City Center
Thu 10:47:57 PM 36.9456 -92.4283 224° Southwest 399 459 36,000  Level Kansas City Center
Thu 10:48:58 PM 36.8667 -92.5247 224° Southwest 397 457 36,000  Level Kansas City Center
Thu 10:49:58 PM 36.7872 -92.6222 225° Southwest 397 457 36,000  Level Kansas City Center
Thu 10:50:58 PM 36.7056 -92.7203 224° Southwest 401 461 36,000  Level Kansas City Center
Thu 10:51:50 PM 36.6242 -92.8183 224° Southwest 407 468 36,000  Level Memphis Center
Thu 10:52:50 PM 36.5431 -92.9167 224° Southwest 407 468 36,000  Level Memphis Center
Thu 10:53:50 PM 36.4597 -93.0144 223° Southwest 407 468 36,000  Level Memphis Center
Thu 10:54:50 PM 36.3783 -93.1125 224° Southwest 407 468 36,000  Level Memphis Center
Thu 10:55:50 PM 36.2950 -93.2125 224° Southwest 407 468 36,000  Level Memphis Center
Thu 10:56:50 PM 36.2114 -93.3100 223° Southwest 407 468 36,000  Level Memphis Center
Thu 10:57:50 PM 36.1256 -93.4072 222° Southwest 407 468 36,000  Level Memphis Center
Thu 10:58:50 PM 36.0417 -93.5092 225° Southwest 407 468 36,000  Level Memphis Center
Thu 10:59:50 PM 35.9600 -93.6061 224° Southwest 407 468 36,000  Level Memphis Center
Thu 11:00:50 PM 35.8761 -93.7053 224° Southwest 407 468 36,000  Level Memphis Center
Thu 11:01:50 PM 35.7919 -93.8042 224° Southwest 407 468 36,000  Level Memphis Center
Thu 11:02:50 PM 35.7058 -93.9031 223° Southwest 407 468 36,000  Level Memphis Center
Thu 11:03:50 PM 35.6197 -93.9989 222° Southwest 412 474 36,000  Level Memphis Center
Thu 11:04:50 PM 35.5331 -94.1022 224° Southwest 418 481 36,000  Level Memphis Center
Thu 11:06:46 PM 35.3817 -94.2819 224° Southwest 422 486 36,000  Level Fort Worth Center
Thu 11:07:46 PM 35.2922 -94.3767 221° Southwest 422 486 36,000  Level Fort Worth Center
Thu 11:08:46 PM 35.2047 -94.4689 221° Southwest 422 486 36,000  Level Fort Worth Center
Thu 11:09:46 PM 35.1175 -94.5683 223° Southwest 422 486 36,000  Level Fort Worth Center
Thu 11:10:46 PM 35.0297 -94.6600 221° Southwest 427 491 36,000  Level Fort Worth Center
Thu 11:11:46 PM 34.9442 -94.7539 222° Southwest 427 491 36,000  Level Fort Worth Center
Thu 11:12:46 PM 34.8483 -94.8606 222° Southwest 427 491 36,000  Level Fort Worth Center
Thu 11:13:46 PM 34.7564 -94.9569 221° Southwest 432 497 36,000  Level Fort Worth Center
Thu 11:14:46 PM 34.6644 -95.0531 221° Southwest 432 497 36,000  Level Fort Worth Center
Thu 11:15:46 PM 34.5722 -95.1386 217° Southwest 427 491 36,000  Level Fort Worth Center
Thu 11:16:46 PM 34.4758 -95.2294 218° Southwest 432 497 36,000  Level Fort Worth Center
Thu 11:17:46 PM 34.3772 -95.3200 217° Southwest 439 505 36,000  Level Fort Worth Center
Thu 11:18:46 PM 34.2806 -95.4103 218° Southwest 444 511 36,000  Level Fort Worth Center
Thu 11:19:46 PM 34.1858 -95.4978 217° Southwest 444 511 36,000 -1,300 Level Fort Worth Center
Thu 11:20:46 PM 34.0869 -95.5878 217° Southwest 439 505 33,400 -2,850 Descending Fort Worth Center
Thu 11:21:46 PM 34.0006 -95.6647 216° Southwest 439 505 30,300 -2,850 Descending Fort Worth Center
Thu 11:22:46 PM 33.9036 -95.7542 217° Southwest 439 505 27,700 -2,550 Descending Fort Worth Center
Thu 11:23:46 PM 33.8131 -95.8436 219° Southwest 434 499 25,200 -2,500 Descending Fort Worth Center
Thu 11:24:46 PM 33.7242 -95.9200 216° Southwest 410 472 22,700 -2,500 Descending Fort Worth Center
Thu 11:25:46 PM 33.6311 -96.0039 217° Southwest 395 455 20,200 -2,250 Descending Fort Worth Center
Thu 11:26:46 PM 33.5589 -96.0700 217° Southwest 380 437 18,200 -2,200 Descending Fort Worth Center
Thu 11:27:46 PM 33.4700 -96.1483 216° Southwest 369 425 15,800 -2,200 Descending Fort Worth Center
Thu 11:28:46 PM 33.4017 -96.2117 218° Southwest 359 413 13,800 -1,700 Descending Fort Worth Center
Thu 11:29:46 PM 33.3317 -96.3044 228° Southwest 351 404 12,400 -1,550 Descending Fort Worth Center
Thu 11:30:46 PM 33.2758 -96.3822 229° Southwest 351 404 10,700 -1,450 Descending Fort Worth Center
Thu 11:31:46 PM 33.2139 -96.4725 231° Southwest 338 389 9,500 -1,100 Descending Fort Worth Center
Thu 11:32:46 PM 33.1706 -96.5372 231° Southwest 299 344 8,500 -1,300 Descending Fort Worth Center
Thu 11:33:46 PM 33.1189 -96.6097 230° Southwest 286 329 6,900 -1,600 Descending Fort Worth Center
Thu 11:34:46 PM 33.0650 -96.6872 230° Southwest 281 323 5,300 -1,550 Descending Fort Worth Center
Thu 11:35:46 PM 33.0217 -96.7494 230° Southwest 281 323 3,800 -1,450 Descending Fort Worth Center
Thu 11:36:46 PM 32.9719 -96.8217 231° Southwest 281 323 2,400 -750 Descending Fort Worth Center
Thu 11:37:46 PM 32.9325 -96.8764 229° Southwest 271 312 2,300 -400 Descending Fort Worth Center
Thu 11:38:46 PM 32.8950 -96.9039 212° Southwest 199 229 1,600 -700 Descending Fort Worth Center
Thu 11:39:46 PM 32.8678 -96.8817 146° Southeast 142 163 900 -200 Descending Fort Worth Center
Thu 11:40:46 PM 32.8422 -96.7781 106° East 116 133 1,200 150 Climbing Fort Worth Center
Thu 11:41:46 PM 32.8694 -96.7728 North 167 192 1,200  Level Fort Worth Center

Login

Don't have an account? Register now (free) for customized features, flight alerts, and more!